Cincinnati, Ohio
Traffic Map
Current Weather Conditions
Cincinnati, Ohio
Clear
Clear
31°
Feels Like: 33°
Wind Chill: 31° Ceiling: Unl
Heat Index: 33° Visibility: 10mi
Dew Point: 19° Wind: 3mph
Humidity: 49% Direction: ° ()
Pressure: 30.01in Gusts: 0mph
Raw Report DataKLUK 291953Z VRB03KT 10SM CLR 31/19 A3001 RMK AO2 SLP159 T03110194
Traffic Incident Summary
Active as of:
Severity:
Category:
InformationThere was an issue retrieving the traffic information for this location. Please try a different location or try again shortly.
Advertisements
Track Severe Weather on mobile